createdAt,value
2019-02-15T00:00:38.615Z,62.80
2019-02-15T00:03:06.845Z,63.10
2019-02-15T00:05:33.137Z,63.10
2019-02-15T00:07:59.432Z,62.80
2019-02-15T00:10:25.849Z,63.10
2019-02-15T00:12:52.237Z,63.10
2019-02-15T00:15:18.569Z,63.10
2019-02-15T00:17:52.500Z,63.10
2019-02-15T00:20:32.507Z,63.10
2019-02-15T00:22:58.892Z,63.00
2019-02-15T00:25:25.293Z,63.00
2019-02-15T00:27:51.610Z,63.00
2019-02-15T00:30:18.005Z,63.00
2019-02-15T00:32:44.316Z,63.00
2019-02-15T00:35:10.727Z,63.50
2019-02-15T00:37:37.025Z,63.00
2019-02-15T00:40:04.530Z,63.00
2019-02-15T00:42:30.839Z,63.20
2019-02-15T00:44:57.256Z,63.50
2019-02-15T00:47:34.234Z,63.40
2019-02-15T00:50:02.465Z,63.30
2019-02-15T00:52:36.589Z,63.40
2019-02-15T00:55:07.225Z,63.20
2019-02-15T00:57:41.393Z,63.60
2019-02-15T01:00:09.638Z,63.70
2019-02-15T01:02:43.606Z,63.60
2019-02-15T01:05:11.832Z,63.60
2019-02-15T01:07:45.977Z,63.60
2019-02-15T01:10:17.174Z,63.60
2019-02-15T01:12:48.091Z,63.50
2019-02-15T01:15:14.490Z,63.40
2019-02-15T01:17:40.799Z,63.60
2019-02-15T01:20:07.302Z,63.70
2019-02-15T01:22:33.739Z,63.70
2019-02-15T01:25:00.304Z,63.70
2019-02-15T01:27:28.729Z,63.60
2019-02-15T01:30:11.951Z,63.60
2019-02-15T01:32:40.278Z,63.30
2019-02-15T01:35:23.742Z,63.70
2019-02-15T01:37:51.962Z,63.60
2019-02-15T01:40:22.999Z,63.90
2019-02-15T01:42:51.214Z,63.80
2019-02-15T01:45:19.440Z,64.00
2019-02-15T01:47:45.749Z,64.00
2019-02-15T01:50:12.066Z,64.00
2019-02-15T01:52:38.357Z,64.00
2019-02-15T01:55:05.284Z,64.20
2019-02-15T01:57:31.580Z,64.40
2019-02-15T01:59:57.970Z,64.50
2019-02-15T02:02:26.187Z,64.30
2019-02-15T02:04:52.477Z,64.50
2019-02-15T02:07:18.791Z,64.10
2019-02-15T02:09:45.085Z,64.60
2019-02-15T02:12:11.872Z,64.60
2019-02-15T02:14:38.275Z,64.90
2019-02-15T02:17:04.570Z,64.50
2019-02-15T02:19:30.949Z,64.50
2019-02-15T02:21:57.237Z,64.50
2019-02-15T02:24:23.530Z,64.50
2019-02-15T02:26:49.825Z,64.80
2019-02-15T02:29:16.110Z,64.50
2019-02-15T02:31:42.558Z,64.20
2019-02-15T02:34:08.863Z,65.30
2019-02-15T02:36:46.626Z,64.10
2019-02-15T02:39:12.922Z,64.20
2019-02-15T02:41:39.221Z,64.10
2019-02-15T02:44:05.542Z,64.30
2019-02-15T02:46:31.850Z,64.30
2019-02-15T02:48:58.388Z,64.30
2019-02-15T02:51:24.777Z,64.40
2019-02-15T02:53:51.182Z,64.30
2019-02-15T02:56:17.477Z,64.50
2019-02-15T02:58:43.774Z,64.20
2019-02-15T03:01:10.190Z,64.40
2019-02-15T03:03:36.488Z,64.40
2019-02-15T03:06:02.904Z,64.30
2019-02-15T03:08:29.303Z,64.40
2019-02-15T03:10:55.703Z,64.30
2019-02-15T03:13:21.993Z,64.10
2019-02-15T03:15:48.314Z,64.00
2019-02-15T03:18:14.615Z,63.90
2019-02-15T03:20:41.217Z,64.20
2019-02-15T03:23:07.528Z,64.00
2019-02-15T03:25:33.823Z,63.80
2019-02-15T03:28:00.115Z,64.00
2019-02-15T03:30:26.447Z,64.00
2019-02-15T03:32:52.735Z,64.00
2019-02-15T03:35:19.126Z,63.80
2019-02-15T03:37:53.322Z,64.20
2019-02-15T03:40:21.506Z,64.00
2019-02-15T03:42:47.924Z,64.00
2019-02-15T03:45:16.244Z,64.00
2019-02-15T03:47:42.569Z,64.20
2019-02-15T03:50:08.874Z,64.40
2019-02-15T03:52:35.157Z,64.30
2019-02-15T03:55:02.266Z,64.10
2019-02-15T03:57:28.564Z,64.10
2019-02-15T03:59:54.903Z,64.20
2019-02-15T04:02:21.187Z,64.00
2019-02-15T04:04:47.482Z,64.20
2019-02-15T04:07:13.795Z,64.00
2019-02-15T04:09:40.181Z,64.00
2019-02-15T04:12:06.610Z,64.00
2019-02-15T04:14:33.497Z,64.00
2019-02-15T04:17:00.194Z,64.30
2019-02-15T04:19:26.497Z,64.50
2019-02-15T04:21:52.797Z,64.40
2019-02-15T04:24:19.210Z,64.60
2019-02-15T04:26:45.606Z,64.50
2019-02-15T04:29:11.893Z,64.20
2019-02-15T04:31:38.224Z,64.20
2019-02-15T04:34:04.607Z,64.20
2019-02-15T04:36:30.914Z,64.30
2019-02-15T04:38:57.214Z,64.30
2019-02-15T04:41:23.505Z,64.20
2019-02-15T04:43:49.797Z,64.20
2019-02-15T04:46:16.121Z,64.10
2019-02-15T04:48:42.473Z,64.00
2019-02-15T04:51:08.747Z,63.90
2019-02-15T04:53:35.030Z,64.00
2019-02-15T04:56:01.425Z,63.70
2019-02-15T04:58:27.721Z,63.60
2019-02-15T05:00:54.141Z,63.60
2019-02-15T05:03:20.430Z,63.60
2019-02-15T05:05:46.831Z,63.60
2019-02-15T05:08:13.136Z,63.60
2019-02-15T05:10:39.526Z,63.40
2019-02-15T05:13:05.848Z,63.40
2019-02-15T05:15:32.242Z,63.40
2019-02-15T05:17:58.645Z,63.30
2019-02-15T05:20:24.955Z,63.50
2019-02-15T05:22:51.257Z,63.20
2019-02-15T05:25:17.555Z,63.20
2019-02-15T05:27:43.845Z,63.20
2019-02-15T05:30:10.233Z,63.30
2019-02-15T05:32:36.538Z,63.30
2019-02-15T05:35:04.036Z,63.20
2019-02-15T05:37:30.358Z,63.30
2019-02-15T05:39:56.863Z,63.30
2019-02-15T05:42:23.158Z,63.20
2019-02-15T05:44:49.458Z,63.40
2019-02-15T05:47:15.753Z,63.40
2019-02-15T05:49:42.103Z,63.40
2019-02-15T05:52:08.389Z,63.40
2019-02-15T05:54:34.791Z,63.40
2019-02-15T05:57:01.083Z,63.40
2019-02-15T05:59:27.379Z,63.40
2019-02-15T06:01:53.811Z,63.30
2019-02-15T06:04:20.198Z,63.80
2019-02-15T06:06:46.594Z,63.60
2019-02-15T06:09:12.887Z,63.40
2019-02-15T06:11:39.187Z,63.40
2019-02-15T06:14:05.506Z,63.70
2019-02-15T06:16:31.906Z,63.80
2019-02-15T06:18:58.711Z,63.50
2019-02-15T06:21:25.002Z,63.80
2019-02-15T06:23:51.295Z,63.80
2019-02-15T06:26:17.804Z,63.80
2019-02-15T06:28:44.057Z,63.70
2019-02-15T06:31:10.575Z,63.80
2019-02-15T06:33:37.077Z,63.60
2019-02-15T06:36:03.384Z,63.80
2019-02-15T06:38:34.785Z,63.70
2019-02-15T06:40:57.786Z,63.80
2019-02-15T06:43:24.077Z,63.90
2019-02-15T06:45:50.589Z,63.80
2019-02-15T06:48:17.005Z,63.60
2019-02-15T06:50:43.414Z,63.40
2019-02-15T06:53:10.131Z,63.50
2019-02-15T06:55:36.625Z,63.40
2019-02-15T06:58:02.926Z,63.40
2019-02-15T07:00:49.390Z,63.70
2019-02-15T07:03:32.631Z,63.30
2019-02-15T07:05:59.017Z,63.20
2019-02-15T07:08:25.302Z,63.30
2019-02-15T07:10:51.701Z,63.60
2019-02-15T07:13:17.990Z,63.40
2019-02-15T07:15:44.430Z,63.20
2019-02-15T07:18:10.731Z,63.20
2019-02-15T07:20:37.022Z,63.20
2019-02-15T07:23:03.318Z,63.30
2019-02-15T07:25:29.722Z,63.10
2019-02-15T07:27:56.054Z,63.30
2019-02-15T07:30:22.351Z,63.10
2019-02-15T07:32:48.644Z,63.00
2019-02-15T07:35:14.940Z,63.00
2019-02-15T07:37:41.281Z,63.00
2019-02-15T07:40:09.068Z,62.80
2019-02-15T07:42:35.340Z,62.80
2019-02-15T07:45:01.654Z,62.60
2019-02-15T07:47:28.055Z,62.60
2019-02-15T07:49:54.673Z,62.80
2019-02-15T07:52:20.991Z,63.10
2019-02-15T07:54:47.290Z,63.70
2019-02-15T07:57:13.583Z,62.60
2019-02-15T07:59:39.884Z,62.80
2019-02-15T08:02:06.271Z,62.70
2019-02-15T08:04:32.590Z,63.10
2019-02-15T08:06:58.985Z,62.70
2019-02-15T08:09:25.283Z,62.70
2019-02-15T08:11:51.573Z,62.70
2019-02-15T08:14:17.878Z,62.90
2019-02-15T08:16:44.285Z,62.90
2019-02-15T08:19:10.573Z,62.80
2019-02-15T08:21:36.870Z,62.70
2019-02-15T08:24:03.192Z,62.70
2019-02-15T08:26:29.583Z,62.60
2019-02-15T08:28:55.923Z,62.60
2019-02-15T08:31:22.221Z,62.60
2019-02-15T08:33:48.527Z,62.50
2019-02-15T08:36:14.837Z,62.50
2019-02-15T08:38:41.337Z,64.40
2019-02-15T08:41:13.248Z,66.00
2019-02-15T08:43:39.707Z,66.80
2019-02-15T08:46:06.324Z,66.50
2019-02-15T08:48:32.751Z,66.30
2019-02-15T08:50:59.181Z,67.70
2019-02-15T08:53:30.291Z,68.10
2019-02-15T08:56:01.630Z,67.10
2019-02-15T08:58:27.950Z,67.30
2019-02-15T09:00:54.427Z,66.90
2019-02-15T09:03:22.105Z,66.60
2019-02-15T09:05:48.758Z,66.80
2019-02-15T09:08:15.410Z,66.80
2019-02-15T09:10:41.809Z,66.80
2019-02-15T09:13:08.103Z,66.60
2019-02-15T09:15:34.418Z,66.50
2019-02-15T09:18:00.707Z,66.50
2019-02-15T09:20:26.994Z,66.50
2019-02-15T09:22:53.297Z,66.40
2019-02-15T09:25:19.591Z,66.20
2019-02-15T09:27:47.790Z,66.20
2019-02-15T09:30:14.210Z,66.10
2019-02-15T09:32:40.869Z,65.80
2019-02-15T09:35:09.709Z,65.90
2019-02-15T09:37:36.104Z,65.80
2019-02-15T09:40:03.597Z,65.70
2019-02-15T09:42:30.114Z,65.70
2019-02-15T09:44:56.413Z,65.90
2019-02-15T09:47:22.749Z,65.80
2019-02-15T09:49:49.114Z,66.30
2019-02-15T09:52:15.410Z,66.80
2019-02-15T09:54:42.026Z,66.40
2019-02-15T09:57:08.320Z,66.50
2019-02-15T09:59:34.642Z,66.60
2019-02-15T10:02:00.933Z,66.50
2019-02-15T10:04:27.328Z,66.40
2019-02-15T10:06:53.644Z,66.30
2019-02-15T10:09:20.041Z,67.30
2019-02-15T10:11:46.369Z,66.80
2019-02-15T10:14:12.749Z,66.50
2019-02-15T10:16:39.045Z,66.30
2019-02-15T10:19:05.458Z,66.10
2019-02-15T10:21:31.878Z,65.70
2019-02-15T10:23:58.370Z,65.50
2019-02-15T10:26:24.774Z,64.80
2019-02-15T10:28:51.174Z,65.00
2019-02-15T10:31:17.484Z,64.40
2019-02-15T10:33:43.886Z,64.00
2019-02-15T10:36:10.230Z,65.00
2019-02-15T10:38:36.625Z,65.40
2019-02-15T10:41:02.927Z,65.80
2019-02-15T10:43:29.337Z,66.70
2019-02-15T10:45:55.727Z,66.60
2019-02-15T10:48:22.256Z,66.70
2019-02-15T10:50:48.574Z,66.40
2019-02-15T10:53:15.180Z,66.50
2019-02-15T10:55:41.482Z,66.20
2019-02-15T10:58:07.879Z,65.90
2019-02-15T11:00:34.313Z,66.10
2019-02-15T11:03:00.592Z,66.00
2019-02-15T11:05:27.015Z,66.10
2019-02-15T11:07:53.532Z,68.30
2019-02-15T11:10:19.879Z,69.00
2019-02-15T11:12:46.152Z,69.00
2019-02-15T11:15:16.587Z,68.90
2019-02-15T11:17:43.082Z,69.00
2019-02-15T11:20:12.697Z,69.30
2019-02-15T11:22:39.314Z,69.20
2019-02-15T11:25:08.064Z,69.40
2019-02-15T11:27:34.566Z,69.70
2019-02-15T11:30:00.966Z,69.80
2019-02-15T11:32:27.286Z,70.60
2019-02-15T11:34:53.677Z,71.20
2019-02-15T11:37:20.005Z,71.60
2019-02-15T11:39:46.605Z,71.80
2019-02-15T11:42:13.029Z,72.30
2019-02-15T11:44:41.962Z,72.50
2019-02-15T11:47:08.357Z,72.50
2019-02-15T11:49:34.854Z,72.50
2019-02-15T11:52:01.154Z,72.40
2019-02-15T11:54:27.842Z,72.70
2019-02-15T11:56:54.629Z,71.30
2019-02-15T11:59:21.256Z,71.00
2019-02-15T12:01:48.276Z,70.80
2019-02-15T12:04:14.574Z,69.20
2019-02-15T12:06:40.969Z,68.40
2019-02-15T12:09:07.281Z,69.20
2019-02-15T12:11:33.679Z,67.90
2019-02-15T12:14:00.202Z,68.60
2019-02-15T12:16:28.205Z,68.20
2019-02-15T12:18:54.495Z,68.60
2019-02-15T12:21:20.904Z,68.20
2019-02-15T12:23:47.293Z,69.40
2019-02-15T12:26:13.881Z,69.30
2019-02-15T12:28:40.455Z,70.00
2019-02-15T12:31:06.846Z,70.20
2019-02-15T12:33:33.241Z,70.40
2019-02-15T12:35:59.558Z,70.40
2019-02-15T12:38:25.865Z,70.40
2019-02-15T12:40:52.268Z,70.60
2019-02-15T12:43:18.577Z,70.30
2019-02-15T12:45:44.875Z,70.00
2019-02-15T12:48:11.296Z,70.20
2019-02-15T12:50:37.749Z,69.90
2019-02-15T12:53:04.189Z,70.20
2019-02-15T12:55:30.507Z,70.20
2019-02-15T12:57:57.030Z,70.20
2019-02-15T13:00:23.458Z,70.30
2019-02-15T13:02:49.754Z,70.10
2019-02-15T13:05:16.164Z,70.10
2019-02-15T13:07:42.526Z,70.20
2019-02-15T13:10:16.199Z,70.30
2019-02-15T13:12:42.614Z,70.10
2019-02-15T13:15:10.415Z,70.00
2019-02-15T13:17:36.826Z,70.40
2019-02-15T13:20:05.043Z,43.60
2019-02-15T13:22:31.336Z,41.70
2019-02-15T13:24:57.662Z,39.00
2019-02-15T13:27:24.062Z,39.30
2019-02-15T13:29:50.457Z,38.70
2019-02-15T13:32:16.766Z,39.60
2019-02-15T13:34:43.271Z,39.10
2019-02-15T13:37:09.693Z,38.60
2019-02-15T13:39:35.996Z,38.60
2019-02-15T13:42:02.298Z,39.20
2019-02-15T13:44:31.470Z,41.40
2019-02-15T13:46:57.762Z,43.80
2019-02-15T13:49:24.209Z,42.30
2019-02-15T13:51:50.586Z,43.70
2019-02-15T13:54:16.931Z,43.30
2019-02-15T13:56:43.342Z,42.60
2019-02-15T13:59:09.633Z,42.70
2019-02-15T14:01:35.993Z,43.00
2019-02-15T14:04:02.286Z,43.30
2019-02-15T14:06:28.577Z,42.70
2019-02-15T14:08:54.885Z,43.90
2019-02-15T14:11:21.185Z,43.00
2019-02-15T14:13:47.715Z,43.00
2019-02-15T14:16:14.002Z,43.10
2019-02-15T14:18:40.296Z,42.70
2019-02-15T14:21:06.774Z,42.10
2019-02-15T14:23:33.266Z,41.20
2019-02-15T14:25:59.602Z,41.20
2019-02-15T14:28:25.888Z,40.70
2019-02-15T14:30:52.193Z,41.00
2019-02-15T14:33:18.505Z,40.80
2019-02-15T14:35:44.794Z,40.60
2019-02-15T14:38:11.135Z,40.90
2019-02-15T14:40:37.533Z,42.50
2019-02-15T14:43:04.117Z,44.30
2019-02-15T14:45:36.308Z,45.50
2019-02-15T14:48:02.603Z,46.40
2019-02-15T14:50:28.915Z,47.10
2019-02-15T14:52:55.307Z,49.00
2019-02-15T14:55:21.716Z,49.20
2019-02-15T14:57:54.006Z,49.70
2019-02-15T15:00:20.313Z,50.10
2019-02-15T15:02:46.606Z,49.10
2019-02-15T15:05:13.013Z,48.70
2019-02-15T15:07:39.408Z,47.30
2019-02-15T15:10:07.819Z,47.50
2019-02-15T15:12:34.122Z,47.30
2019-02-15T15:15:00.410Z,47.50
2019-02-15T15:17:26.839Z,47.70
2019-02-15T15:19:53.267Z,47.80
2019-02-15T15:22:19.566Z,49.50
2019-02-15T15:24:46.282Z,50.60
2019-02-15T15:27:12.571Z,51.20
2019-02-15T15:29:38.978Z,51.30
2019-02-15T15:32:05.277Z,52.00
2019-02-15T15:34:31.699Z,53.00
2019-02-15T15:36:58.074Z,53.20
2019-02-15T15:39:24.366Z,53.50
2019-02-15T15:41:50.674Z,53.50
2019-02-15T15:44:16.966Z,53.50
2019-02-15T15:46:43.307Z,54.00
2019-02-15T15:49:09.789Z,54.70
2019-02-15T15:51:36.098Z,54.70
2019-02-15T15:54:02.510Z,54.80
2019-02-15T15:56:30.169Z,55.00
2019-02-15T15:58:56.458Z,55.20
2019-02-15T16:01:22.782Z,55.00
2019-02-15T16:03:49.079Z,52.40
2019-02-15T16:06:24.030Z,51.50
2019-02-15T16:08:43.701Z,51.70
2019-02-15T16:11:10.207Z,52.90
2019-02-15T16:13:36.502Z,53.40
2019-02-15T16:16:02.826Z,53.60
2019-02-15T16:18:34.223Z,53.90
2019-02-15T16:20:57.368Z,54.00
2019-02-15T16:23:23.783Z,54.30
2019-02-15T16:25:50.287Z,54.40
2019-02-15T16:28:16.622Z,54.50
2019-02-15T16:30:43.008Z,54.70
2019-02-15T16:33:10.540Z,54.70
2019-02-15T16:35:37.025Z,54.80
2019-02-15T16:38:03.320Z,54.90
2019-02-15T16:40:29.850Z,55.00
2019-02-15T16:42:56.242Z,55.10
2019-02-15T16:45:23.644Z,55.80
2019-02-15T16:47:49.973Z,55.30
2019-02-15T16:50:16.270Z,55.30
2019-02-15T16:52:42.592Z,55.30
2019-02-15T16:55:12.852Z,55.50
2019-02-15T16:57:38.082Z,55.50
2019-02-15T17:00:07.793Z,55.50
2019-02-15T17:02:34.092Z,55.50
2019-02-15T17:05:00.450Z,55.50
2019-02-15T17:07:26.998Z,55.50
2019-02-15T17:09:53.526Z,55.60
2019-02-15T17:12:19.925Z,55.60
2019-02-15T17:14:46.314Z,55.70
2019-02-15T17:17:12.729Z,55.90
2019-02-15T17:19:39.020Z,56.00
2019-02-15T17:22:05.554Z,55.70
2019-02-15T17:24:31.845Z,55.90
2019-02-15T17:26:58.158Z,56.80
2019-02-15T17:29:24.561Z,56.40
2019-02-15T17:31:50.961Z,56.30
2019-02-15T17:34:18.088Z,57.20
2019-02-15T17:36:44.377Z,58.30
2019-02-15T17:39:11.734Z,58.50
2019-02-15T17:41:38.127Z,58.80
2019-02-15T17:44:04.417Z,58.80
2019-02-15T17:46:30.790Z,59.00
2019-02-15T17:49:00.847Z,58.90
2019-02-15T17:51:26.184Z,58.90
2019-02-15T17:53:52.496Z,59.10
2019-02-15T17:56:18.897Z,59.00
2019-02-15T17:58:46.675Z,59.60
2019-02-15T18:01:14.065Z,59.20
2019-02-15T18:03:40.321Z,59.20
2019-02-15T18:06:06.966Z,59.20
2019-02-15T18:08:33.718Z,59.30
2019-02-15T18:11:01.279Z,59.30
2019-02-15T18:13:27.531Z,59.20
2019-02-15T18:15:53.822Z,59.20
2019-02-15T18:18:20.734Z,59.30
2019-02-15T18:20:47.372Z,59.00
2019-02-15T18:23:13.825Z,58.80
2019-02-15T18:25:40.526Z,58.70
2019-02-15T18:28:06.935Z,58.80
2019-02-15T18:30:33.341Z,59.20
2019-02-15T18:33:00.149Z,59.30
2019-02-15T18:35:26.665Z,59.00
2019-02-15T18:37:52.958Z,58.70
2019-02-15T18:40:19.451Z,58.70
2019-02-15T18:42:45.970Z,58.70
2019-02-15T18:45:14.223Z,60.60
2019-02-15T18:47:40.491Z,60.20
2019-02-15T18:50:08.182Z,59.80
2019-02-15T18:52:34.890Z,59.90
2019-02-15T18:55:01.266Z,60.00
2019-02-15T18:57:27.787Z,60.30
2019-02-15T18:59:54.219Z,60.30
2019-02-15T19:02:20.619Z,60.40
2019-02-15T19:04:47.019Z,60.80
2019-02-15T19:07:13.325Z,61.00
2019-02-15T19:09:39.822Z,60.80
2019-02-15T19:12:06.151Z,60.40
2019-02-15T19:14:32.449Z,61.00
2019-02-15T19:16:58.965Z,61.10
2019-02-15T19:19:29.058Z,61.10
2019-02-15T19:21:58.041Z,61.00
2019-02-15T19:24:24.482Z,61.30
2019-02-15T19:26:50.890Z,60.20
2019-02-15T19:29:17.185Z,61.00
2019-02-15T19:31:43.642Z,60.70
2019-02-15T19:34:10.035Z,61.70
2019-02-15T19:36:36.438Z,61.40
2019-02-15T19:39:04.546Z,61.90
2019-02-15T19:41:30.946Z,61.40
2019-02-15T19:43:57.376Z,62.90
2019-02-15T19:46:23.674Z,63.30
2019-02-15T19:48:50.078Z,63.20
2019-02-15T19:51:16.490Z,63.20
2019-02-15T19:53:43.059Z,62.50
2019-02-15T19:56:10.517Z,62.90
2019-02-15T19:58:36.810Z,62.70
2019-02-15T20:01:03.206Z,63.10
2019-02-15T20:03:29.522Z,62.30
2019-02-15T20:05:56.346Z,62.40
2019-02-15T20:08:22.645Z,62.20
2019-02-15T20:10:48.934Z,62.10
2019-02-15T20:13:15.447Z,62.30
2019-02-15T20:15:41.757Z,62.40
2019-02-15T20:18:08.161Z,61.80
2019-02-15T20:20:34.477Z,62.20
2019-02-15T20:23:00.773Z,61.70
2019-02-15T20:25:27.073Z,61.30
2019-02-15T20:27:53.489Z,61.50
2019-02-15T20:30:21.286Z,61.40
2019-02-15T20:32:48.064Z,61.40
2019-02-15T20:35:14.521Z,60.70
2019-02-15T20:37:40.919Z,61.20
2019-02-15T20:40:09.662Z,61.60
2019-02-15T20:42:35.976Z,62.00
2019-02-15T20:45:03.353Z,61.80
2019-02-15T20:47:29.751Z,62.10
2019-02-15T20:50:02.322Z,62.10
2019-02-15T20:52:28.678Z,62.50
2019-02-15T20:54:54.967Z,62.30
2019-02-15T20:57:21.553Z,62.10
2019-02-15T20:59:47.869Z,61.60
2019-02-15T21:02:14.455Z,61.30
2019-02-15T21:04:40.889Z,61.30
2019-02-15T21:07:07.202Z,61.70
2019-02-15T21:09:33.488Z,61.20
2019-02-15T21:11:59.809Z,61.00
2019-02-15T21:14:26.082Z,61.00
2019-02-15T21:16:52.416Z,61.00
2019-02-15T21:19:18.716Z,61.00
2019-02-15T21:21:45.011Z,60.80
2019-02-15T21:24:11.312Z,60.90
2019-02-15T21:26:37.611Z,60.90
2019-02-15T21:29:03.940Z,61.30
2019-02-15T21:31:30.251Z,60.90
2019-02-15T21:33:56.554Z,60.90
2019-02-15T21:36:22.946Z,61.00
2019-02-15T21:38:49.248Z,61.20
2019-02-15T21:41:15.564Z,60.90
2019-02-15T21:43:41.863Z,60.90
2019-02-15T21:46:08.154Z,60.80
2019-02-15T21:48:34.440Z,60.80
2019-02-15T21:51:00.849Z,60.80
2019-02-15T21:53:27.183Z,60.90
2019-02-15T21:55:53.476Z,60.90
2019-02-15T21:58:19.775Z,61.00
2019-02-15T22:00:46.070Z,60.90
2019-02-15T22:03:12.474Z,60.90
2019-02-15T22:05:38.909Z,60.80
2019-02-15T22:08:05.198Z,60.80
2019-02-15T22:10:31.489Z,61.90
2019-02-15T22:12:57.790Z,60.90
2019-02-15T22:15:24.077Z,61.00
2019-02-15T22:17:50.385Z,60.90
2019-02-15T22:20:26.001Z,60.70
2019-02-15T22:22:44.770Z,60.80
2019-02-15T22:25:11.086Z,60.80
2019-02-15T22:27:37.481Z,60.90
2019-02-15T22:30:14.758Z,60.90
2019-02-15T22:32:42.572Z,60.90
2019-02-15T22:35:09.237Z,61.80
2019-02-15T22:37:35.542Z,60.70
2019-02-15T22:40:23.401Z,60.90
2019-02-15T22:42:49.719Z,61.00
2019-02-15T22:45:16.013Z,60.90
2019-02-15T22:47:42.304Z,61.00
2019-02-15T22:50:08.647Z,60.90
2019-02-15T22:52:35.023Z,60.90
2019-02-15T22:55:01.353Z,60.90
2019-02-15T22:57:27.763Z,60.90
2019-02-15T22:59:54.734Z,60.90
2019-02-15T23:02:21.570Z,60.90
2019-02-15T23:04:47.868Z,61.00
2019-02-15T23:07:14.306Z,60.90
2019-02-15T23:09:40.711Z,60.90
2019-02-15T23:12:07.224Z,60.90
2019-02-15T23:14:33.728Z,61.00
2019-02-15T23:17:00.030Z,61.00
2019-02-15T23:19:26.328Z,61.00
2019-02-15T23:21:52.846Z,61.20
2019-02-15T23:24:19.331Z,60.90
2019-02-15T23:26:45.765Z,61.00
2019-02-15T23:29:12.070Z,61.00
2019-02-15T23:31:38.575Z,60.80
2019-02-15T23:34:04.983Z,60.90
2019-02-15T23:36:31.509Z,61.00
2019-02-15T23:38:57.955Z,61.10
2019-02-15T23:41:24.241Z,61.20
2019-02-15T23:43:50.653Z,61.50
2019-02-15T23:46:17.059Z,61.40
2019-02-15T23:48:43.362Z,61.30
2019-02-15T23:51:09.701Z,61.60
2019-02-15T23:53:36.029Z,61.60
2019-02-15T23:56:02.442Z,61.70
2019-02-15T23:58:29.358Z,61.80
